createdAt,value
2022-11-06T00:02:00.869Z,44.96
2022-11-06T00:04:31.528Z,45.27
2022-11-06T00:06:58.955Z,45.18
2022-11-06T00:09:26.445Z,46.40
2022-11-06T00:11:53.932Z,45.68
2022-11-06T00:14:21.357Z,45.79
2022-11-06T00:16:49.223Z,45.43
2022-11-06T00:19:18.787Z,45.75
2022-11-06T00:21:46.367Z,46.32
2022-11-06T00:24:14.879Z,46.06
2022-11-06T00:26:42.785Z,45.43
2022-11-06T00:29:13.880Z,46.17
2022-11-06T00:31:41.539Z,46.17
2022-11-06T00:34:10.726Z,46.09
2022-11-06T00:36:38.503Z,46.04
2022-11-06T00:39:05.990Z,46.71
2022-11-06T00:41:33.527Z,46.55
2022-11-06T00:44:02.258Z,46.48
2022-11-06T00:46:30.183Z,46.25
2022-11-06T00:48:58.132Z,46.60
2022-11-06T00:51:31.485Z,46.72
2022-11-06T00:54:00.988Z,46.67
2022-11-06T00:56:29.771Z,46.83
2022-11-06T00:58:59.883Z,46.74
2022-11-06T01:01:30.410Z,46.84
2022-11-06T01:04:03.538Z,47.05
2022-11-06T01:06:33.512Z,47.19
2022-11-06T01:09:01.405Z,46.86
2022-11-06T01:11:46.595Z,47.01
2022-11-06T01:14:19.718Z,47.52
2022-11-06T01:16:47.626Z,47.28
2022-11-06T01:19:16.455Z,47.39
2022-11-06T01:21:46.684Z,47.39
2022-11-06T01:24:17.403Z,47.84
2022-11-06T01:26:58.816Z,47.36
2022-11-06T01:29:32.760Z,48.02
2022-11-06T01:32:00.190Z,48.04
2022-11-06T01:34:27.700Z,48.07
2022-11-06T01:36:55.090Z,48.27
2022-11-06T01:39:22.478Z,48.18
2022-11-06T01:41:51.694Z,48.42
2022-11-06T01:44:40.843Z,48.58
2022-11-06T01:47:26.177Z,48.32
2022-11-06T01:49:58.873Z,48.71
2022-11-06T01:52:27.391Z,48.55
2022-11-06T01:54:58.619Z,48.36
2022-11-06T01:57:26.012Z,48.24
2022-11-06T01:59:54.441Z,48.74
2022-11-06T02:02:22.010Z,48.41
2022-11-06T02:04:49.920Z,48.55
2022-11-06T02:07:18.928Z,48.88
2022-11-06T02:09:46.522Z,48.78
2022-11-06T02:12:31.403Z,49.00
2022-11-06T02:15:14.047Z,48.95
2022-11-06T02:17:44.076Z,48.81
2022-11-06T02:20:55.683Z,49.11
2022-11-06T02:23:35.160Z,48.89
2022-11-06T02:26:13.263Z,49.15
2022-11-06T02:28:48.105Z,48.97
2022-11-06T02:31:18.336Z,48.80
2022-11-06T02:33:52.378Z,48.88
2022-11-06T02:36:23.463Z,49.02
2022-11-06T02:38:55.378Z,49.29
2022-11-06T02:41:26.072Z,49.13
2022-11-06T02:43:56.414Z,49.32
2022-11-06T02:46:39.802Z,49.22
2022-11-06T02:49:13.587Z,49.56
2022-11-06T02:51:45.123Z,49.36
2022-11-06T02:54:12.713Z,49.38
2022-11-06T02:56:43.422Z,49.62
2022-11-06T02:59:15.522Z,49.38
2022-11-06T03:01:47.380Z,49.47
2022-11-06T03:05:04.525Z,49.67
2022-11-06T03:07:38.438Z,49.72
2022-11-06T03:10:07.099Z,49.74
2022-11-06T03:12:57.528Z,49.75
2022-11-06T03:15:34.510Z,49.89
2022-11-06T03:18:13.072Z,50.14
2022-11-06T03:20:48.114Z,50.02
2022-11-06T03:23:29.384Z,50.72
2022-11-06T03:26:04.811Z,50.10
2022-11-06T03:28:39.135Z,50.37
2022-11-06T03:31:11.995Z,50.54
2022-11-06T03:33:45.360Z,50.50
2022-11-06T03:36:17.157Z,50.26
2022-11-06T03:38:48.084Z,50.29
2022-11-06T03:41:54.489Z,50.75
2022-11-06T03:44:24.854Z,50.62
2022-11-06T03:47:23.122Z,51.06
2022-11-06T03:50:20.571Z,50.80
2022-11-06T03:53:18.598Z,50.96
2022-11-06T03:55:50.653Z,50.78
2022-11-06T03:58:22.352Z,51.00
2022-11-06T04:00:51.552Z,50.88
2022-11-06T04:03:24.446Z,51.35
2022-11-06T04:05:55.234Z,51.10
2022-11-06T04:08:44.110Z,51.18
2022-11-06T04:11:34.434Z,51.69
2022-11-06T04:14:05.422Z,51.40
2022-11-06T04:16:41.893Z,51.29
2022-11-06T04:19:21.934Z,51.59
2022-11-06T04:22:16.582Z,51.91
2022-11-06T04:25:27.432Z,51.76
2022-11-06T04:28:24.159Z,51.67
2022-11-06T04:31:16.745Z,51.58
2022-11-06T04:33:58.331Z,51.81
2022-11-06T04:36:47.187Z,51.96
2022-11-06T04:39:17.842Z,51.64
2022-11-06T04:42:11.136Z,52.09
2022-11-06T04:44:44.225Z,52.01
2022-11-06T04:47:22.016Z,52.22
2022-11-06T04:49:51.300Z,52.16
2022-11-06T04:52:23.255Z,52.30
2022-11-06T04:54:51.219Z,52.22
2022-11-06T04:57:18.620Z,52.35
2022-11-06T04:59:46.030Z,52.36
2022-11-06T05:02:13.541Z,52.45
2022-11-06T05:04:41.418Z,52.49
2022-11-06T05:07:09.662Z,52.49
2022-11-06T05:09:37.087Z,52.60
2022-11-06T05:12:04.699Z,52.57
2022-11-06T05:14:32.736Z,52.87
2022-11-06T05:17:00.470Z,52.66
2022-11-06T05:19:27.920Z,52.99
2022-11-06T05:22:13.887Z,52.87
2022-11-06T05:24:41.291Z,53.12
2022-11-06T05:27:08.722Z,53.10
2022-11-06T05:29:36.134Z,53.11
2022-11-06T05:32:03.795Z,53.36
2022-11-06T05:34:31.211Z,53.37
2022-11-06T05:36:58.628Z,53.20
2022-11-06T05:39:26.029Z,53.47
2022-11-06T05:41:53.514Z,53.40
2022-11-06T05:44:21.145Z,53.27
2022-11-06T05:46:49.909Z,53.50
2022-11-06T05:49:18.702Z,53.48
2022-11-06T05:51:46.369Z,53.46
2022-11-06T05:54:14.646Z,53.69
2022-11-06T05:56:42.072Z,53.65
2022-11-06T05:59:09.605Z,53.55
2022-11-06T06:01:37.149Z,54.01
2022-11-06T06:04:04.827Z,53.79
2022-11-06T06:06:32.680Z,53.85
2022-11-06T06:09:00.033Z,53.62
2022-11-06T06:11:27.487Z,54.16
2022-11-06T06:13:54.874Z,54.06
2022-11-06T06:16:22.314Z,54.05
2022-11-06T06:18:53.438Z,54.14
2022-11-06T06:21:20.834Z,54.07
2022-11-06T06:23:48.229Z,54.25
2022-11-06T06:26:15.678Z,54.28
2022-11-06T06:28:43.372Z,54.20
2022-11-06T06:31:10.955Z,54.30
2022-11-06T06:33:38.349Z,54.47
2022-11-06T06:36:06.532Z,54.23
2022-11-06T06:38:34.136Z,54.44
2022-11-06T06:41:02.844Z,54.27
2022-11-06T06:43:30.783Z,54.49
2022-11-06T06:46:03.244Z,54.70
2022-11-06T06:48:30.612Z,54.49
2022-11-06T06:51:01.850Z,54.31
2022-11-06T06:53:29.910Z,54.66
2022-11-06T06:56:01.853Z,54.54
2022-11-06T06:58:30.173Z,54.85
2022-11-06T07:01:10.368Z,54.77
2022-11-06T07:03:38.826Z,54.64
2022-11-06T07:06:07.185Z,54.74
2022-11-06T07:08:34.567Z,54.69
2022-11-06T07:11:07.631Z,54.83
2022-11-06T07:13:36.563Z,54.73
2022-11-06T07:16:09.758Z,54.77
2022-11-06T07:18:38.188Z,54.92
2022-11-06T07:21:07.852Z,54.98
2022-11-06T07:23:36.259Z,54.88
2022-11-06T07:26:04.579Z,54.96
2022-11-06T07:28:32.622Z,55.23
2022-11-06T07:40:11.018Z,57.80
2022-11-06T07:42:43.244Z,57.47
2022-11-06T07:45:15.328Z,58.12
2022-11-06T07:47:43.365Z,57.76
2022-11-06T07:50:10.783Z,57.29
2022-11-06T07:52:38.165Z,57.31
2022-11-06T07:55:06.174Z,57.18
2022-11-06T07:57:37.137Z,57.38
2022-11-06T08:00:06.392Z,57.13
2022-11-06T08:02:40.454Z,56.73
2022-11-06T08:05:08.548Z,56.74
2022-11-06T08:07:36.084Z,56.67
2022-11-06T08:10:03.896Z,56.19
2022-11-06T08:12:31.316Z,56.43
2022-11-06T08:14:58.743Z,56.32
2022-11-06T08:17:27.675Z,56.21
2022-11-06T08:19:55.092Z,56.28
2022-11-06T08:22:22.602Z,56.30
2022-11-06T08:24:49.971Z,56.66
2022-11-06T08:27:17.976Z,56.50
2022-11-06T08:29:45.936Z,56.07
2022-11-06T08:32:13.469Z,56.32
2022-11-06T08:34:42.341Z,56.43
2022-11-06T08:37:10.642Z,56.28
2022-11-06T08:39:38.442Z,56.16
2022-11-06T08:42:07.209Z,56.83
2022-11-06T08:44:34.821Z,56.67
2022-11-06T08:47:02.575Z,56.35
2022-11-06T08:49:30.559Z,56.74
2022-11-06T08:51:58.457Z,56.64
2022-11-06T08:54:26.514Z,56.33
2022-11-06T08:56:54.355Z,56.13
2022-11-06T08:59:22.091Z,56.09
2022-11-06T09:01:49.945Z,56.29
2022-11-06T09:04:17.749Z,56.20
2022-11-06T09:06:45.368Z,57.24
2022-11-06T09:09:13.011Z,56.74
2022-11-06T09:11:41.261Z,56.39
2022-11-06T09:14:09.082Z,56.18
2022-11-06T09:16:36.747Z,56.52
2022-11-06T09:19:04.363Z,56.29
2022-11-06T09:21:32.770Z,56.60
2022-11-06T09:24:00.329Z,56.39
2022-11-06T09:26:27.954Z,56.50
2022-11-06T09:28:55.576Z,56.58
2022-11-06T09:31:23.190Z,56.61
2022-11-06T09:33:51.329Z,56.43
2022-11-06T09:36:18.898Z,56.54
2022-11-06T09:38:46.468Z,56.58
2022-11-06T09:41:52.621Z,56.40
2022-11-06T09:44:32.869Z,56.70
2022-11-06T09:47:05.738Z,56.61
2022-11-06T09:49:42.199Z,58.18
2022-11-06T09:52:34.709Z,57.00
2022-11-06T09:55:06.376Z,56.91
2022-11-06T09:57:42.812Z,57.27
2022-11-06T10:00:15.880Z,56.67
2022-11-06T10:02:53.051Z,58.21
2022-11-06T10:05:36.210Z,57.08
2022-11-06T10:08:10.481Z,56.90
2022-11-06T10:10:57.400Z,57.44
2022-11-06T10:13:31.071Z,57.26
2022-11-06T10:16:16.277Z,57.05
2022-11-06T10:18:50.104Z,56.97
2022-11-06T10:21:20.548Z,56.94
2022-11-06T10:24:00.166Z,56.86
2022-11-06T10:26:38.601Z,57.14
2022-11-06T10:29:28.099Z,56.64
2022-11-06T10:32:08.536Z,56.89
2022-11-06T10:34:52.835Z,56.76
2022-11-06T10:37:28.558Z,56.50
2022-11-06T10:39:57.271Z,56.62
2022-11-06T10:42:38.274Z,57.03
2022-11-06T10:45:11.948Z,56.78
2022-11-06T10:47:52.252Z,57.11
2022-11-06T10:50:20.005Z,56.93
2022-11-06T10:52:58.814Z,57.03
2022-11-06T10:55:26.399Z,56.73
2022-11-06T10:58:01.106Z,56.77
2022-11-06T11:00:28.627Z,56.90
2022-11-06T11:02:57.410Z,56.64
2022-11-06T11:05:26.700Z,57.17
2022-11-06T11:07:55.200Z,56.84
2022-11-06T11:10:28.708Z,56.76
2022-11-06T11:13:01.679Z,57.50
2022-11-06T11:15:33.095Z,57.41
2022-11-06T11:18:33.997Z,57.29
2022-11-06T11:21:25.486Z,57.32
2022-11-06T11:24:10.604Z,57.24
2022-11-06T11:26:43.379Z,57.44
2022-11-06T11:29:21.597Z,57.26
2022-11-06T11:31:57.688Z,57.38
2022-11-06T11:34:27.807Z,56.87
2022-11-06T11:37:08.339Z,56.98
2022-11-06T11:39:38.083Z,57.14
2022-11-06T11:42:23.473Z,56.96
2022-11-06T11:45:07.207Z,57.08
2022-11-06T11:47:35.907Z,57.01
2022-11-06T11:50:21.906Z,56.88
2022-11-06T11:52:51.608Z,56.74
2022-11-06T11:55:26.674Z,57.02
2022-11-06T11:57:56.570Z,56.47
2022-11-06T12:00:24.207Z,56.67
2022-11-06T12:02:59.008Z,56.53
2022-11-06T12:05:37.192Z,56.47
2022-11-06T12:08:04.961Z,56.55
2022-11-06T12:10:40.251Z,56.79
2022-11-06T12:13:16.364Z,56.17
2022-11-06T12:15:57.571Z,56.49
2022-11-06T12:18:36.422Z,56.40
2022-11-06T12:21:22.142Z,56.22
2022-11-06T12:24:30.812Z,56.42
2022-11-06T12:27:02.408Z,56.57
2022-11-06T12:30:10.683Z,56.27
2022-11-06T12:33:12.243Z,56.46
2022-11-06T12:35:48.583Z,56.08
2022-11-06T12:38:45.183Z,56.39
2022-11-06T12:41:17.042Z,56.36
2022-11-06T12:43:46.957Z,56.68
2022-11-06T12:46:37.062Z,56.43
2022-11-06T12:49:09.179Z,56.61
2022-11-06T12:52:14.792Z,56.63
2022-11-06T12:54:54.113Z,56.54
2022-11-06T12:57:48.028Z,56.53
2022-11-06T13:00:24.116Z,56.27
2022-11-06T13:03:13.320Z,56.27
2022-11-06T13:05:59.654Z,56.36
2022-11-06T13:08:39.391Z,56.43
2022-11-06T13:11:36.595Z,56.04
2022-11-06T13:14:26.906Z,55.95
2022-11-06T13:17:09.199Z,56.06
2022-11-06T13:19:45.354Z,55.93
2022-11-06T13:22:15.847Z,56.10
2022-11-06T13:24:57.837Z,56.18
2022-11-06T13:27:50.376Z,55.94
2022-11-06T13:30:19.852Z,55.88
2022-11-06T13:33:15.149Z,56.39
2022-11-06T13:35:43.622Z,55.90
2022-11-06T13:38:23.680Z,56.21
2022-11-06T13:40:54.017Z,56.05
2022-11-06T13:43:37.522Z,56.02
2022-11-06T13:46:25.551Z,56.20
2022-11-06T13:49:11.533Z,55.97
2022-11-06T13:51:54.524Z,56.02
2022-11-06T13:54:54.381Z,55.92
2022-11-06T13:57:46.656Z,56.03
2022-11-06T14:00:37.612Z,56.10
2022-11-06T14:03:28.335Z,56.22
2022-11-06T14:06:05.726Z,55.88
2022-11-06T14:08:35.199Z,55.73
2022-11-06T14:11:06.120Z,55.85
2022-11-06T14:13:35.335Z,55.64
2022-11-06T14:16:07.659Z,56.08
2022-11-06T14:18:35.357Z,56.46
2022-11-06T14:21:28.275Z,55.93
2022-11-06T14:24:05.846Z,55.94
2022-11-06T14:26:39.026Z,55.72
2022-11-06T14:29:42.325Z,56.15
2022-11-06T14:32:12.059Z,55.81
2022-11-06T14:34:41.996Z,56.00
2022-11-06T14:37:42.192Z,56.65
2022-11-06T14:40:13.694Z,55.98
2022-11-06T14:42:46.348Z,56.21
2022-11-06T14:45:21.394Z,56.16
2022-11-06T14:47:54.405Z,56.66
2022-11-06T14:50:25.661Z,56.78
2022-11-06T14:52:59.619Z,56.20
2022-11-06T14:55:33.244Z,56.46
2022-11-06T14:58:20.811Z,56.14
2022-11-06T15:00:52.539Z,55.82
2022-11-06T15:03:21.392Z,56.01
2022-11-06T15:05:52.338Z,56.07
2022-11-06T15:08:45.126Z,56.04
2022-11-06T15:11:31.003Z,56.70
2022-11-06T15:14:07.787Z,56.50
2022-11-06T15:16:50.786Z,56.40
2022-11-06T15:19:47.500Z,56.39
2022-11-06T15:22:28.954Z,56.09
2022-11-06T15:25:04.066Z,56.32
2022-11-06T15:27:38.946Z,55.92
2022-11-06T15:30:19.702Z,56.40
2022-11-06T15:32:48.591Z,56.41
2022-11-06T15:35:19.437Z,56.32
2022-11-06T15:37:50.764Z,56.11
2022-11-06T15:40:30.494Z,56.25
2022-11-06T15:43:01.024Z,56.44
2022-11-06T15:45:29.446Z,56.29
2022-11-06T15:48:02.004Z,56.33
2022-11-06T15:50:34.061Z,56.30
2022-11-06T15:53:14.086Z,56.36
2022-11-06T15:55:55.377Z,57.00
2022-11-06T15:58:31.724Z,56.63
2022-11-06T16:01:01.134Z,56.50
2022-11-06T16:03:31.416Z,56.35
2022-11-06T16:06:02.055Z,56.42
2022-11-06T16:08:31.446Z,56.50
2022-11-06T16:10:59.227Z,56.66
2022-11-06T16:13:27.006Z,56.40
2022-11-06T16:15:59.041Z,56.67
2022-11-06T16:18:32.467Z,56.28
2022-11-06T16:21:10.156Z,56.53
2022-11-06T16:23:46.518Z,57.00
2022-11-06T16:26:16.242Z,56.71
2022-11-06T16:28:45.571Z,56.22
2022-11-06T16:31:19.287Z,56.56
2022-11-06T16:34:01.059Z,56.59
2022-11-06T16:36:30.609Z,56.41
2022-11-06T16:39:40.059Z,56.47
2022-11-06T16:42:27.831Z,56.64
2022-11-06T16:45:31.369Z,56.49
2022-11-06T16:48:08.045Z,57.01
2022-11-06T16:50:50.543Z,56.88
2022-11-06T16:53:19.383Z,56.80
2022-11-06T16:56:07.195Z,56.64
2022-11-06T16:58:52.050Z,56.62
2022-11-06T17:01:21.006Z,56.95
2022-11-06T17:03:54.556Z,56.55
2022-11-06T17:06:30.128Z,56.72
2022-11-06T17:09:24.226Z,56.73
2022-11-06T17:11:56.733Z,56.73
2022-11-06T17:14:24.980Z,56.80
2022-11-06T17:16:53.658Z,56.30
2022-11-06T17:19:21.588Z,56.89
2022-11-06T17:21:50.262Z,56.40
2022-11-06T17:24:36.121Z,56.49
2022-11-06T17:27:05.357Z,56.61
2022-11-06T17:29:36.374Z,56.77
2022-11-06T17:32:04.689Z,56.66
2022-11-06T17:34:32.189Z,56.61
2022-11-06T17:36:59.700Z,56.47
2022-11-06T17:39:27.164Z,56.56
2022-11-06T17:41:54.743Z,56.49
2022-11-06T17:44:22.479Z,56.60
2022-11-06T17:46:50.016Z,56.87
2022-11-06T17:49:18.678Z,56.68
2022-11-06T17:51:50.163Z,57.03
2022-11-06T17:54:18.881Z,57.00
2022-11-06T17:56:46.560Z,56.93
2022-11-06T17:59:14.431Z,56.92
2022-11-06T18:01:42.279Z,56.94
2022-11-06T18:04:10.050Z,56.80
2022-11-06T18:06:37.518Z,57.18
2022-11-06T18:09:07.482Z,57.11
2022-11-06T18:11:35.015Z,57.04
2022-11-06T18:14:03.174Z,57.00
2022-11-06T18:16:32.776Z,56.90
2022-11-06T18:19:00.925Z,56.94
2022-11-06T18:21:28.505Z,56.90
2022-11-06T18:23:56.027Z,56.91
2022-11-06T18:26:23.480Z,56.97
2022-11-06T18:28:51.150Z,56.92
2022-11-06T18:31:19.477Z,56.92
2022-11-06T18:33:47.651Z,57.09
2022-11-06T18:36:16.061Z,57.19
2022-11-06T18:38:43.673Z,56.88
2022-11-06T18:41:14.058Z,57.37
2022-11-06T18:43:41.551Z,57.12
2022-11-06T18:46:36.103Z,57.00
2022-11-06T18:49:03.727Z,56.96
2022-11-06T18:51:35.467Z,57.11
2022-11-06T18:54:05.080Z,57.45
2022-11-06T18:56:33.685Z,56.99
2022-11-06T18:59:01.122Z,56.91
2022-11-06T19:01:29.722Z,56.72
2022-11-06T19:03:57.364Z,57.01
2022-11-06T19:06:24.803Z,56.85
2022-11-06T19:08:52.372Z,57.06
2022-11-06T19:11:19.965Z,57.52
2022-11-06T19:13:48.637Z,56.99
2022-11-06T19:16:19.362Z,57.12
2022-11-06T19:21:30.390Z,56.98
2022-11-06T19:24:05.355Z,56.77
2022-11-06T19:26:35.726Z,57.13
2022-11-06T19:29:05.285Z,56.88
2022-11-06T19:31:33.254Z,56.96
2022-11-06T19:34:02.152Z,56.94
2022-11-06T19:36:30.282Z,56.95
2022-11-06T19:38:58.657Z,56.99
2022-11-06T19:41:27.035Z,56.89
2022-11-06T19:43:54.618Z,56.91
2022-11-06T19:46:26.022Z,57.26
2022-11-06T19:48:57.261Z,56.76
2022-11-06T19:51:25.902Z,57.20
2022-11-06T19:53:54.433Z,56.67
2022-11-06T19:56:22.289Z,56.75
2022-11-06T19:58:50.780Z,56.95
2022-11-06T20:01:19.556Z,57.22
2022-11-06T20:03:47.185Z,57.16
2022-11-06T20:06:14.980Z,57.06
2022-11-06T20:08:42.873Z,56.92
2022-11-06T20:11:12.759Z,57.24
2022-11-06T20:13:41.117Z,57.39
2022-11-06T20:16:15.061Z,56.90
2022-11-06T20:18:42.677Z,57.24
2022-11-06T20:21:12.014Z,56.93
2022-11-06T20:23:39.689Z,56.94
2022-11-06T20:26:07.283Z,57.28
2022-11-06T20:28:35.028Z,57.12
2022-11-06T20:31:07.415Z,56.91
2022-11-06T20:33:35.157Z,57.51
2022-11-06T20:36:13.318Z,57.23
2022-11-06T20:38:41.107Z,56.84
2022-11-06T20:41:08.566Z,56.98
2022-11-06T20:43:36.173Z,56.82
2022-11-06T20:46:04.100Z,56.99
2022-11-06T20:48:32.989Z,56.84
2022-11-06T20:51:05.351Z,56.84
2022-11-06T20:53:32.892Z,57.00
2022-11-06T20:56:02.535Z,56.76
2022-11-06T20:58:30.340Z,56.73
2022-11-06T21:01:06.387Z,56.64
2022-11-06T21:03:34.207Z,56.74
2022-11-06T21:06:01.879Z,56.81
2022-11-06T21:08:32.307Z,57.00
2022-11-06T21:11:06.011Z,57.16
2022-11-06T21:13:34.299Z,57.00
2022-11-06T21:16:04.765Z,57.30
2022-11-06T21:18:35.327Z,57.24
2022-11-06T21:21:05.936Z,57.27
2022-11-06T21:23:34.616Z,57.18
2022-11-06T21:26:13.920Z,57.46
2022-11-06T21:28:43.377Z,57.30
2022-11-06T21:31:25.870Z,57.10
2022-11-06T21:33:56.402Z,57.38
2022-11-06T21:36:28.671Z,57.39
2022-11-06T21:38:59.016Z,57.60
2022-11-06T21:41:28.482Z,57.54
2022-11-06T21:43:56.869Z,57.50
2022-11-06T21:46:24.726Z,57.42
2022-11-06T21:48:52.910Z,57.32
2022-11-06T21:51:26.643Z,57.28
2022-11-06T21:54:13.080Z,57.30
2022-11-06T21:56:41.615Z,57.50
2022-11-06T21:59:11.874Z,57.45
2022-11-06T22:01:40.285Z,57.52
2022-11-06T22:04:08.598Z,57.41
2022-11-06T22:06:36.173Z,57.35
2022-11-06T22:09:03.932Z,57.68
2022-11-06T22:11:33.318Z,57.61
2022-11-06T22:14:04.835Z,57.39
2022-11-06T22:16:35.491Z,57.50
2022-11-06T22:19:03.778Z,57.47
2022-11-06T22:21:31.242Z,57.45
2022-11-06T22:23:58.799Z,57.35
2022-11-06T22:26:29.810Z,57.43
2022-11-06T22:28:59.535Z,57.46
2022-11-06T22:31:27.834Z,57.34
2022-11-06T22:33:55.987Z,57.46
2022-11-06T22:36:24.128Z,57.61
2022-11-06T22:38:52.181Z,57.53
2022-11-06T22:41:22.201Z,57.65
2022-11-06T22:43:50.102Z,57.42
2022-11-06T22:46:20.951Z,57.57
2022-11-06T22:48:49.259Z,57.72
2022-11-06T22:51:21.743Z,57.77
2022-11-06T22:53:50.420Z,57.80
2022-11-06T22:56:18.727Z,57.56
2022-11-06T22:58:46.091Z,57.46
2022-11-06T23:01:13.914Z,57.52
2022-11-06T23:03:41.385Z,57.72
2022-11-06T23:06:10.051Z,57.33
2022-11-06T23:08:42.913Z,57.62
2022-11-06T23:11:15.197Z,57.30
2022-11-06T23:13:43.984Z,57.50
2022-11-06T23:16:13.904Z,57.50
2022-11-06T23:18:41.723Z,57.33
2022-11-06T23:21:16.988Z,57.54
2022-11-06T23:23:45.264Z,57.23
2022-11-06T23:26:18.459Z,57.36
2022-11-06T23:28:46.445Z,57.33
2022-11-06T23:31:15.176Z,57.45
2022-11-06T23:33:43.504Z,57.52
2022-11-06T23:36:13.675Z,57.55
2022-11-06T23:38:41.718Z,57.59
2022-11-06T23:41:30.749Z,57.64
2022-11-06T23:43:58.932Z,57.74
2022-11-06T23:46:28.845Z,57.54
2022-11-06T23:48:56.460Z,57.58
2022-11-06T23:51:26.777Z,57.50
2022-11-06T23:53:54.433Z,57.50
2022-11-06T23:56:21.846Z,57.52
2022-11-06T23:58:49.427Z,57.55
